createdAt,value
2018-08-25T00:01:59.419Z,17.33
2018-08-25T00:04:28.756Z,18.90
2018-08-25T00:06:58.017Z,22.97
2018-08-25T00:09:27.291Z,19.57
2018-08-25T00:11:56.572Z,19.60
2018-08-25T00:14:25.891Z,19.80
2018-08-25T00:16:55.278Z,18.00
2018-08-25T00:19:24.580Z,18.93
2018-08-25T00:21:53.855Z,18.50
2018-08-25T00:24:23.162Z,17.30
2018-08-25T00:26:52.491Z,19.87
2018-08-25T00:29:21.836Z,25.07
2018-08-25T00:31:52.835Z,21.10
2018-08-25T00:34:23.055Z,18.50
2018-08-25T00:36:52.355Z,19.27
2018-08-25T00:39:21.645Z,17.10
2018-08-25T00:41:50.951Z,16.03
2018-08-25T00:44:20.326Z,17.77
2018-08-25T00:46:49.635Z,19.17
2018-08-25T00:49:19.025Z,17.90
2018-08-25T00:51:48.384Z,20.57
2018-08-25T00:54:17.783Z,20.90
2018-08-25T00:56:47.185Z,14.33
2018-08-25T00:59:16.542Z,16.00
2018-08-25T01:01:46.059Z,23.33
2018-08-25T01:04:15.448Z,20.47
2018-08-25T01:06:44.703Z,14.60
2018-08-25T01:09:13.987Z,18.90
2018-08-25T01:11:43.296Z,20.33
2018-08-25T01:14:12.599Z,21.67
2018-08-25T01:16:41.892Z,16.43
2018-08-25T01:19:11.178Z,16.90
2018-08-25T01:21:40.566Z,18.43
2018-08-25T01:24:09.879Z,14.53
2018-08-25T01:26:39.183Z,15.27
2018-08-25T01:29:08.489Z,18.23
2018-08-25T01:31:38.052Z,17.83
2018-08-25T01:34:07.513Z,21.07
2018-08-25T01:36:36.788Z,20.80
2018-08-25T01:39:08.781Z,16.93
2018-08-25T01:41:38.286Z,20.20
2018-08-25T01:44:07.610Z,20.20
2018-08-25T01:46:36.950Z,20.77
2018-08-25T01:49:06.240Z,17.00
2018-08-25T01:51:35.551Z,17.53
2018-08-25T01:54:04.890Z,17.10
2018-08-25T01:56:34.243Z,19.23
2018-08-25T01:59:03.650Z,17.60
2018-08-25T02:01:32.948Z,16.80
2018-08-25T02:04:02.288Z,23.07
2018-08-25T02:06:31.534Z,19.00
2018-08-25T02:09:00.850Z,18.70
2018-08-25T02:11:30.114Z,17.67
2018-08-25T02:13:59.431Z,16.07
2018-08-25T02:16:28.821Z,18.90
2018-08-25T02:18:58.242Z,17.60
2018-08-25T02:21:27.570Z,21.23
2018-08-25T02:23:56.971Z,22.77
2018-08-25T02:26:26.300Z,19.43
2018-08-25T02:28:55.681Z,13.50
2018-08-25T02:31:24.996Z,14.17
2018-08-25T02:33:54.308Z,15.13
2018-08-25T02:36:23.587Z,17.23
2018-08-25T02:38:53.000Z,15.40
2018-08-25T02:41:22.328Z,17.23
2018-08-25T02:43:51.647Z,15.27
2018-08-25T02:46:20.953Z,12.40
2018-08-25T02:48:50.405Z,17.73
2018-08-25T02:51:19.813Z,15.20
2018-08-25T02:53:49.052Z,14.70
2018-08-25T02:56:18.343Z,14.83
2018-08-25T02:58:47.599Z,14.87
2018-08-25T03:01:16.895Z,14.70
2018-08-25T03:03:46.470Z,14.53
2018-08-25T03:06:15.765Z,16.53
2018-08-25T03:08:45.069Z,15.90
2018-08-25T03:11:14.331Z,17.13
2018-08-25T03:13:43.794Z,13.73
2018-08-25T03:16:13.220Z,12.20
2018-08-25T03:18:42.517Z,13.33
2018-08-25T03:21:11.888Z,14.63
2018-08-25T03:23:41.178Z,13.40
2018-08-25T03:26:10.533Z,13.50
2018-08-25T03:28:39.798Z,14.40
2018-08-25T03:31:09.200Z,15.27
2018-08-25T03:33:38.479Z,17.97
2018-08-25T03:36:07.783Z,15.07
2018-08-25T03:38:37.080Z,13.33
2018-08-25T03:41:06.910Z,12.73
2018-08-25T03:43:36.265Z,12.33
2018-08-25T03:46:05.614Z,13.80
2018-08-25T03:48:34.882Z,17.13
2018-08-25T03:51:04.279Z,17.77
2018-08-25T03:53:33.567Z,14.00
2018-08-25T03:56:02.895Z,12.20
2018-08-25T03:58:32.252Z,14.43
2018-08-25T04:01:01.541Z,15.20
2018-08-25T04:03:30.895Z,17.60
2018-08-25T04:06:00.161Z,14.90
2018-08-25T04:08:29.424Z,14.00
2018-08-25T04:10:59.451Z,15.80
2018-08-25T04:13:28.751Z,12.33
2018-08-25T04:15:58.078Z,17.07
2018-08-25T04:18:27.455Z,16.33
2018-08-25T04:20:56.816Z,13.60
2018-08-25T04:23:26.111Z,13.53
2018-08-25T04:25:55.583Z,22.23
2018-08-25T04:28:24.905Z,11.53
2018-08-25T04:30:54.281Z,15.63
2018-08-25T04:33:23.631Z,15.73
2018-08-25T04:35:53.053Z,15.80
2018-08-25T04:38:22.456Z,12.60
2018-08-25T04:40:51.811Z,13.63
2018-08-25T04:43:21.180Z,10.67
2018-08-25T04:45:50.475Z,14.40
2018-08-25T04:48:19.783Z,14.90
2018-08-25T04:50:49.072Z,14.03
2018-08-25T04:53:18.448Z,11.27
2018-08-25T04:55:47.805Z,18.10
2018-08-25T04:58:17.439Z,13.43
2018-08-25T05:00:46.745Z,11.60
2018-08-25T05:03:16.100Z,11.97
2018-08-25T05:05:45.471Z,12.70
2018-08-25T05:08:14.839Z,10.57
2018-08-25T05:10:44.119Z,16.17
2018-08-25T05:13:13.425Z,9.63
2018-08-25T05:15:42.745Z,12.03
2018-08-25T05:18:12.043Z,13.93
2018-08-25T05:20:41.340Z,10.90
2018-08-25T05:23:10.651Z,13.00
2018-08-25T05:25:39.961Z,10.90
2018-08-25T05:28:09.276Z,13.27
2018-08-25T05:30:38.634Z,10.43
2018-08-25T05:33:07.940Z,11.77
2018-08-25T05:35:37.303Z,12.33
2018-08-25T05:38:06.808Z,14.13
2018-08-25T05:40:36.200Z,11.10
2018-08-25T05:43:05.595Z,10.53
2018-08-25T05:45:34.948Z,12.07
2018-08-25T05:48:04.270Z,11.57
2018-08-25T05:50:33.553Z,8.83
2018-08-25T05:53:03.092Z,14.30
2018-08-25T05:55:32.378Z,10.97
2018-08-25T05:58:01.736Z,10.00
2018-08-25T06:00:31.052Z,12.50
2018-08-25T06:03:00.367Z,13.83
2018-08-25T06:05:29.751Z,11.57
2018-08-25T06:07:59.051Z,11.37
2018-08-25T06:10:28.351Z,12.80
2018-08-25T06:12:57.782Z,11.27
2018-08-25T06:15:27.048Z,14.67
2018-08-25T06:17:56.460Z,13.67
2018-08-25T06:20:26.639Z,10.47
2018-08-25T06:22:55.988Z,13.87
2018-08-25T06:25:25.308Z,13.30
2018-08-25T06:27:54.598Z,10.10
2018-08-25T06:30:23.875Z,12.30
2018-08-25T06:32:53.143Z,10.23
2018-08-25T06:35:22.531Z,9.50
2018-08-25T06:37:51.791Z,16.83
2018-08-25T06:40:21.145Z,12.47
2018-08-25T06:42:50.396Z,10.90
2018-08-25T06:45:19.764Z,12.20
2018-08-25T06:47:49.159Z,11.87
2018-08-25T06:50:18.513Z,9.77
2018-08-25T06:52:47.856Z,10.80
2018-08-25T06:55:17.164Z,12.80
2018-08-25T06:57:46.462Z,11.07
2018-08-25T07:00:15.764Z,9.70
2018-08-25T07:02:45.154Z,11.33
2018-08-25T07:05:14.467Z,11.33
2018-08-25T07:07:43.772Z,9.80
2018-08-25T07:10:13.065Z,12.63
2018-08-25T07:12:42.561Z,10.07
2018-08-25T07:15:11.876Z,10.00
2018-08-25T07:17:41.183Z,10.10
2018-08-25T07:20:10.547Z,10.90
2018-08-25T07:22:39.837Z,9.73
2018-08-25T07:25:09.188Z,11.93
2018-08-25T07:27:38.440Z,14.70
2018-08-25T07:30:07.906Z,11.13
2018-08-25T07:32:37.193Z,14.53
2018-08-25T07:35:06.599Z,9.80
2018-08-25T07:37:35.967Z,11.03
2018-08-25T07:40:05.381Z,11.80
2018-08-25T07:42:34.727Z,9.33
2018-08-25T07:45:04.211Z,10.50
2018-08-25T07:47:33.529Z,11.50
2018-08-25T07:50:02.796Z,8.03
2018-08-25T07:52:32.114Z,8.20
2018-08-25T07:55:01.463Z,17.00
2018-08-25T07:57:30.764Z,11.43
2018-08-25T08:00:00.089Z,10.30
2018-08-25T08:02:29.388Z,12.83
2018-08-25T08:04:58.721Z,12.60
2018-08-25T08:07:28.010Z,10.57
2018-08-25T08:09:57.773Z,10.63
2018-08-25T08:12:27.059Z,9.60
2018-08-25T08:14:56.494Z,8.40
2018-08-25T08:17:25.798Z,11.53
2018-08-25T08:19:55.094Z,16.07
2018-08-25T08:22:24.454Z,8.10
2018-08-25T08:24:53.688Z,8.40
2018-08-25T08:27:22.990Z,7.63
2018-08-25T08:29:52.175Z,6.30
2018-08-25T08:32:21.487Z,9.67
2018-08-25T08:34:51.719Z,12.37
2018-08-25T08:37:21.071Z,7.60
2018-08-25T08:39:50.425Z,11.30
2018-08-25T08:42:19.820Z,11.87
2018-08-25T08:44:49.174Z,11.53
2018-08-25T08:47:18.646Z,11.87
2018-08-25T08:49:48.108Z,8.97
2018-08-25T08:52:17.491Z,7.37
2018-08-25T08:54:46.743Z,8.67
2018-08-25T08:57:16.237Z,11.90
2018-08-25T08:59:45.509Z,9.93
2018-08-25T09:02:15.050Z,9.43
2018-08-25T09:04:44.336Z,10.87
2018-08-25T09:07:13.658Z,8.60
2018-08-25T09:09:42.954Z,7.90
2018-08-25T09:12:12.259Z,10.77
2018-08-25T09:14:41.602Z,9.90
2018-08-25T09:17:10.875Z,13.43
2018-08-25T09:19:40.271Z,9.60
2018-08-25T09:22:10.214Z,6.87
2018-08-25T09:24:39.786Z,9.20
2018-08-25T09:27:09.185Z,7.50
2018-08-25T09:29:38.553Z,5.50
2018-08-25T09:32:08.001Z,13.03
2018-08-25T09:34:37.272Z,6.83
2018-08-25T09:37:06.592Z,9.90
2018-08-25T09:39:35.925Z,8.23
2018-08-25T09:42:05.311Z,10.50
2018-08-25T09:44:34.686Z,6.70
2018-08-25T09:47:04.192Z,7.33
2018-08-25T09:49:33.552Z,12.07
2018-08-25T09:52:02.936Z,6.23
2018-08-25T09:54:32.250Z,8.70
2018-08-25T09:57:01.579Z,9.97
2018-08-25T09:59:30.867Z,11.17
2018-08-25T10:02:01.904Z,8.53
2018-08-25T10:04:32.394Z,8.07
2018-08-25T10:07:01.931Z,8.77
2018-08-25T10:09:31.483Z,5.77
2018-08-25T10:12:00.712Z,9.00
2018-08-25T10:14:29.958Z,7.77
2018-08-25T10:16:59.274Z,8.73
2018-08-25T10:19:28.491Z,5.07
2018-08-25T10:21:57.685Z,8.90
2018-08-25T10:24:26.916Z,7.93
2018-08-25T10:26:56.175Z,11.33
2018-08-25T10:29:25.412Z,12.00
2018-08-25T10:31:54.688Z,7.03
2018-08-25T10:34:23.842Z,4.80
2018-08-25T10:36:59.525Z,10.03
2018-08-25T10:39:28.935Z,8.57
2018-08-25T10:41:58.244Z,5.47
2018-08-25T10:44:27.549Z,9.97
2018-08-25T10:46:57.477Z,8.27
2018-08-25T10:49:26.677Z,7.23
2018-08-25T10:51:56.076Z,9.07
2018-08-25T10:54:25.377Z,11.70
2018-08-25T10:56:54.552Z,11.03
2018-08-25T10:59:23.832Z,14.53
2018-08-25T11:01:53.226Z,7.47
2018-08-25T11:04:22.455Z,8.77
2018-08-25T11:06:51.664Z,5.23
2018-08-25T11:09:20.963Z,11.37
2018-08-25T11:11:50.264Z,7.20
2018-08-25T11:14:19.455Z,13.70
2018-08-25T11:16:48.740Z,8.67
2018-08-25T11:19:17.991Z,6.77
2018-08-25T11:21:47.229Z,5.87
2018-08-25T11:24:16.487Z,4.20
2018-08-25T11:26:45.716Z,7.00
2018-08-25T11:29:14.983Z,10.17
2018-08-25T11:31:44.171Z,5.97
2018-08-25T11:34:13.399Z,5.67
2018-08-25T11:36:44.708Z,8.13
2018-08-25T11:39:14.062Z,8.00
2018-08-25T11:41:46.247Z,6.87
2018-08-25T11:44:15.611Z,8.60
2018-08-25T11:46:44.955Z,8.67
2018-08-25T11:49:14.428Z,10.50
2018-08-25T11:51:43.728Z,10.60
2018-08-25T11:54:13.224Z,4.90
2018-08-25T11:56:42.654Z,9.83
2018-08-25T11:59:12.059Z,10.57
2018-08-25T12:01:42.011Z,7.57
2018-08-25T12:04:25.566Z,11.47
2018-08-25T12:06:56.780Z,9.80
2018-08-25T12:09:26.744Z,8.40
2018-08-25T12:11:56.055Z,4.77
2018-08-25T12:14:25.418Z,11.60
2018-08-25T12:16:54.756Z,9.97
2018-08-25T12:19:24.175Z,7.07
2018-08-25T12:21:53.466Z,9.13
2018-08-25T12:24:22.810Z,10.83
2018-08-25T12:26:54.439Z,8.33
2018-08-25T12:29:23.827Z,13.33
2018-08-25T12:31:53.741Z,8.03
2018-08-25T12:34:23.161Z,17.53
2018-08-25T12:36:52.546Z,6.47
2018-08-25T12:39:21.949Z,9.23
2018-08-25T12:41:51.331Z,9.50
2018-08-25T12:44:20.684Z,12.17
2018-08-25T12:46:52.539Z,13.97
2018-08-25T12:49:23.007Z,6.73
2018-08-25T12:51:53.661Z,8.07
2018-08-25T12:54:23.967Z,11.33
2018-08-25T12:56:54.645Z,11.30
2018-08-25T13:02:10.812Z,9.80
2018-08-25T13:04:41.212Z,9.57
2018-08-25T13:07:12.003Z,10.13
2018-08-25T13:09:41.923Z,13.83
2018-08-25T13:12:13.466Z,9.10
2018-08-25T13:14:44.577Z,12.10
2018-08-25T13:17:13.954Z,8.47
2018-08-25T13:19:43.519Z,13.40
2018-08-25T13:22:13.124Z,11.97
2018-08-25T13:25:04.549Z,9.67
2018-08-25T13:27:34.658Z,9.07
2018-08-25T13:30:04.155Z,9.50
2018-08-25T13:32:33.471Z,12.87
2018-08-25T13:35:02.726Z,11.00
2018-08-25T13:37:32.023Z,13.40
2018-08-25T13:40:01.500Z,10.20
2018-08-25T13:42:30.921Z,9.93
2018-08-25T13:45:00.335Z,11.33
2018-08-25T13:47:32.787Z,11.53
2018-08-25T13:50:02.165Z,13.80
2018-08-25T13:52:31.670Z,18.23
2018-08-25T13:55:01.107Z,12.47
2018-08-25T13:57:30.470Z,12.70
2018-08-25T13:59:59.831Z,15.50
2018-08-25T14:02:29.093Z,10.97
2018-08-25T14:05:00.912Z,13.47
2018-08-25T14:07:30.551Z,14.10
2018-08-25T14:10:08.426Z,13.40
2018-08-25T14:12:38.563Z,9.80
2018-08-25T14:15:12.274Z,12.40
2018-08-25T14:17:43.086Z,15.17
2018-08-25T14:31:55.957Z,13.90
2018-08-25T14:34:25.405Z,12.40
2018-08-25T14:36:55.571Z,12.70
2018-08-25T14:39:25.739Z,16.23
2018-08-25T14:41:55.151Z,13.90
2018-08-25T14:44:24.489Z,11.20
2018-08-25T14:46:55.018Z,5.70
2018-08-25T14:49:25.065Z,14.67
2018-08-25T14:51:55.334Z,12.73
2018-08-25T14:54:24.729Z,6.73
2018-08-25T14:56:54.905Z,6.60
2018-08-25T14:59:24.376Z,9.67
2018-08-25T15:01:53.856Z,9.87
2018-08-25T15:04:23.965Z,12.20
2018-08-25T15:06:54.012Z,9.77
2018-08-25T15:09:24.994Z,9.27
2018-08-25T15:12:00.402Z,10.50
2018-08-25T15:14:39.833Z,11.70
2018-08-25T15:17:23.707Z,9.73
2018-08-25T15:22:34.988Z,8.27
2018-08-25T15:28:02.306Z,10.60
2018-08-25T15:30:38.232Z,9.03
2018-08-25T15:33:23.810Z,11.80
2018-08-25T15:35:54.176Z,9.50
2018-08-25T15:38:35.607Z,6.20
2018-08-25T15:41:19.385Z,6.23
2018-08-25T15:43:53.639Z,10.70
2018-08-25T15:46:24.072Z,9.87
2018-08-25T15:48:54.507Z,8.07
2018-08-25T15:51:24.135Z,8.20
2018-08-25T15:53:53.987Z,11.77
2018-08-25T15:56:25.016Z,9.07
2018-08-25T15:58:55.335Z,8.30
2018-08-25T16:01:24.717Z,9.43
2018-08-25T16:03:54.047Z,12.27
2018-08-25T16:06:26.159Z,8.00
2018-08-25T16:08:56.077Z,9.33
2018-08-25T16:11:25.830Z,7.90
2018-08-25T16:13:55.719Z,10.80
2018-08-25T16:16:25.667Z,10.00
2018-08-25T16:18:55.588Z,7.60
2018-08-25T16:21:25.497Z,4.80
2018-08-25T16:23:55.312Z,10.10
2018-08-25T16:26:24.892Z,5.80
2018-08-25T16:28:54.309Z,6.13
2018-08-25T16:31:23.736Z,9.47
2018-08-25T16:33:52.975Z,12.53
2018-08-25T16:36:22.479Z,8.03
2018-08-25T16:38:51.797Z,11.67
2018-08-25T16:41:21.178Z,10.10
2018-08-25T16:43:50.672Z,7.80
2018-08-25T16:46:20.050Z,7.50
2018-08-25T16:48:49.369Z,9.17
2018-08-25T16:51:18.652Z,9.17
2018-08-25T16:53:47.958Z,12.50
2018-08-25T16:56:17.351Z,10.10
2018-08-25T16:58:46.756Z,11.37
2018-08-25T17:01:16.177Z,8.60
2018-08-25T17:03:45.524Z,11.27
2018-08-25T17:06:14.893Z,8.27
2018-08-25T17:08:45.222Z,6.60
2018-08-25T17:11:14.733Z,17.63
2018-08-25T17:13:44.490Z,8.40
2018-08-25T17:16:15.622Z,7.00
2018-08-25T17:18:45.165Z,10.10
2018-08-25T17:21:15.279Z,8.07
2018-08-25T17:23:45.785Z,6.90
2018-08-25T17:26:15.760Z,8.20
2018-08-25T17:28:45.188Z,8.80
2018-08-25T17:31:15.715Z,10.00
2018-08-25T17:33:45.931Z,8.73
2018-08-25T17:36:15.535Z,9.03
2018-08-25T17:38:46.294Z,11.07
2018-08-25T17:41:16.488Z,10.03
2018-08-25T17:43:46.600Z,8.70
2018-08-25T17:46:16.193Z,13.20
2018-08-25T17:48:45.727Z,7.87
2018-08-25T17:51:15.254Z,7.17
2018-08-25T17:53:44.528Z,10.10
2018-08-25T17:56:14.717Z,11.10
2018-08-25T17:58:44.253Z,8.70
2018-08-25T18:01:14.073Z,10.87
2018-08-25T18:03:44.771Z,11.23
2018-08-25T18:06:14.169Z,16.40
2018-08-25T18:08:44.962Z,10.80
2018-08-25T18:11:16.876Z,8.70
2018-08-25T18:13:46.248Z,9.60
2018-08-25T18:16:15.894Z,12.47
2018-08-25T18:18:45.965Z,13.20
2018-08-25T18:21:16.105Z,9.83
2018-08-25T18:23:45.974Z,10.67
2018-08-25T18:26:15.972Z,9.23
2018-08-25T18:28:45.730Z,10.67
2018-08-25T18:31:15.610Z,13.13
2018-08-25T18:33:45.388Z,13.50
2018-08-25T18:36:15.370Z,13.03
2018-08-25T18:38:45.347Z,8.07
2018-08-25T18:41:15.185Z,8.27
2018-08-25T18:43:45.387Z,7.50
2018-08-25T18:57:17.129Z,14.50
2018-08-25T19:02:37.978Z,5.23
2018-08-25T19:05:23.694Z,9.03
2018-08-25T19:08:01.775Z,11.17
2018-08-25T19:10:48.270Z,8.07
2018-08-25T19:13:19.965Z,5.00
2018-08-25T19:15:59.612Z,9.60
2018-08-25T19:18:32.512Z,7.03
2018-08-25T19:21:02.757Z,5.53
2018-08-25T19:23:35.869Z,8.40
2018-08-25T19:26:05.938Z,7.27
2018-08-25T19:28:37.557Z,5.10
2018-08-25T19:31:07.724Z,8.07
2018-08-25T19:33:37.376Z,7.43
2018-08-25T19:36:07.260Z,6.30
2018-08-25T19:38:37.447Z,7.80
2018-08-25T19:41:09.364Z,8.70
2018-08-25T19:43:39.394Z,9.33
2018-08-25T19:46:09.282Z,7.30
2018-08-25T19:48:39.276Z,10.03
2018-08-25T19:51:09.232Z,8.17
2018-08-25T19:53:39.002Z,7.00
2018-08-25T19:56:08.703Z,15.90
2018-08-25T19:58:38.437Z,6.27
2018-08-25T20:01:08.081Z,8.17
2018-08-25T20:03:37.837Z,8.93
2018-08-25T20:06:07.798Z,7.23
2018-08-25T20:08:37.583Z,8.10
2018-08-25T20:11:07.357Z,11.00
2018-08-25T20:13:38.037Z,9.37
2018-08-25T20:16:07.904Z,5.70
2018-08-25T20:18:37.538Z,6.10
2018-08-25T20:21:07.404Z,10.03
2018-08-25T20:23:37.265Z,6.47
2018-08-25T20:26:07.490Z,5.47
2018-08-25T20:28:37.062Z,7.77
2018-08-25T20:31:06.910Z,7.57
2018-08-25T20:33:36.718Z,5.80
2018-08-25T20:36:06.687Z,9.93
2018-08-25T20:38:36.480Z,6.87
2018-08-25T20:41:06.752Z,6.77
2018-08-25T20:43:36.690Z,16.20
2018-08-25T20:46:06.556Z,4.70
2018-08-25T20:48:36.152Z,8.93
2018-08-25T20:51:06.086Z,7.70
2018-08-25T20:53:35.977Z,8.23
2018-08-25T20:56:06.016Z,10.80
2018-08-25T20:58:35.635Z,6.60
2018-08-25T21:01:05.453Z,4.93
2018-08-25T21:03:35.331Z,6.97
2018-08-25T21:06:05.389Z,4.37
2018-08-25T21:08:36.351Z,5.30
2018-08-25T21:11:08.040Z,2.60
2018-08-25T21:13:39.462Z,3.90
2018-08-25T21:16:11.801Z,5.57
2018-08-25T21:18:44.161Z,4.80
2018-08-25T21:21:15.143Z,4.00
2018-08-25T21:23:44.688Z,2.77
2018-08-25T21:26:14.097Z,6.17
2018-08-25T21:28:43.499Z,3.30
2018-08-25T21:31:12.953Z,2.77
2018-08-25T21:33:42.799Z,2.77
2018-08-25T21:36:12.125Z,6.30
2018-08-25T21:38:41.480Z,4.00
2018-08-25T21:41:10.804Z,2.73
2018-08-25T21:43:40.071Z,2.57
2018-08-25T21:46:09.683Z,3.07
2018-08-25T21:48:38.952Z,3.10
2018-08-25T21:51:12.580Z,2.77
2018-08-25T21:53:41.915Z,7.30
2018-08-25T21:56:11.188Z,3.13
2018-08-25T21:58:40.577Z,4.00
2018-08-25T22:01:09.890Z,3.33
2018-08-25T22:03:39.204Z,3.33
2018-08-25T22:06:08.608Z,2.43
2018-08-25T22:08:37.922Z,3.37
2018-08-25T22:11:08.144Z,4.87
2018-08-25T22:13:37.448Z,2.90
2018-08-25T22:16:08.570Z,4.77
2018-08-25T22:18:38.457Z,6.83
2018-08-25T22:21:07.873Z,3.47
2018-08-25T22:23:37.184Z,3.70
2018-08-25T22:26:08.925Z,2.47
2018-08-25T22:28:38.713Z,4.13
2018-08-25T22:31:08.972Z,8.70
2018-08-25T22:33:38.555Z,2.83
2018-08-25T22:36:07.992Z,2.67
2018-08-25T22:38:37.272Z,8.97
2018-08-25T22:41:06.653Z,6.50
2018-08-25T22:43:36.029Z,3.77
2018-08-25T22:46:06.385Z,3.43
2018-08-25T22:48:36.006Z,3.13
2018-08-25T22:51:05.318Z,3.37
2018-08-25T22:53:34.806Z,6.10
2018-08-25T22:56:04.569Z,6.40
2018-08-25T22:58:33.892Z,7.10
2018-08-25T23:01:03.164Z,4.30
2018-08-25T23:03:32.481Z,5.50
2018-08-25T23:06:01.887Z,4.87
2018-08-25T23:08:31.180Z,4.90
2018-08-25T23:11:00.540Z,5.57
2018-08-25T23:13:29.859Z,4.60
2018-08-25T23:15:59.691Z,7.50
2018-08-25T23:18:28.959Z,8.80
2018-08-25T23:20:58.668Z,7.40
2018-08-25T23:23:28.015Z,9.90
2018-08-25T23:25:57.678Z,7.07
2018-08-25T23:28:27.004Z,8.43
2018-08-25T23:30:56.283Z,8.70
2018-08-25T23:33:25.538Z,14.37
2018-08-25T23:35:54.831Z,9.10
2018-08-25T23:38:24.359Z,10.07
2018-08-25T23:40:54.651Z,8.43
2018-08-25T23:43:23.896Z,12.60
2018-08-25T23:45:53.208Z,9.67
2018-08-25T23:48:22.490Z,6.97
2018-08-25T23:50:51.826Z,9.33
2018-08-25T23:53:21.115Z,11.67
2018-08-25T23:55:50.349Z,5.70
2018-08-25T23:58:19.647Z,9.70
